createdAt,value
2023-07-03T00:00:16.309Z,12.80
2023-07-03T00:02:44.048Z,14.50
2023-07-03T00:05:11.918Z,18.47
2023-07-03T00:07:39.693Z,19.00
2023-07-03T00:10:07.428Z,16.70
2023-07-03T00:12:34.723Z,16.07
2023-07-03T00:15:02.267Z,19.33
2023-07-03T00:17:29.466Z,15.87
2023-07-03T00:19:56.768Z,16.80
2023-07-03T00:22:24.010Z,15.77
2023-07-03T00:24:51.206Z,16.43
2023-07-03T00:27:19.524Z,18.10
2023-07-03T00:29:46.815Z,16.23
2023-07-03T00:32:14.091Z,18.50
2023-07-03T00:34:41.384Z,17.40
2023-07-03T00:37:08.763Z,15.43
2023-07-03T00:39:35.937Z,18.13
2023-07-03T00:42:04.052Z,18.73
2023-07-03T00:44:31.267Z,19.30
2023-07-03T00:46:58.673Z,19.50
2023-07-03T00:49:26.159Z,21.67
2023-07-03T00:51:55.408Z,14.87
2023-07-03T00:54:22.843Z,17.23
2023-07-03T00:56:50.163Z,19.37
2023-07-03T00:59:18.219Z,18.30
2023-07-03T01:01:54.828Z,20.33
2023-07-03T01:04:36.017Z,18.70
2023-07-03T01:07:05.608Z,24.23
2023-07-03T01:09:39.155Z,21.80
2023-07-03T01:12:06.823Z,18.70
2023-07-03T01:14:35.048Z,17.27
2023-07-03T01:17:03.092Z,19.90
2023-07-03T01:19:32.674Z,16.07
2023-07-03T01:22:03.896Z,18.53
2023-07-03T01:24:41.639Z,17.03
2023-07-03T01:27:10.601Z,15.23
2023-07-03T01:29:38.835Z,15.13
2023-07-03T01:32:08.212Z,15.07
2023-07-03T01:34:35.473Z,20.20
2023-07-03T01:37:03.732Z,18.27
2023-07-03T01:39:31.420Z,13.33
2023-07-03T01:41:59.188Z,16.90
2023-07-03T01:44:26.364Z,14.23
2023-07-03T01:46:53.590Z,16.47
2023-07-03T01:49:20.755Z,16.17
2023-07-03T01:51:55.801Z,13.40
2023-07-03T01:54:27.242Z,11.67
2023-07-03T01:56:55.862Z,11.83
2023-07-03T01:59:25.960Z,11.53
2023-07-03T02:02:22.361Z,8.17
2023-07-03T02:04:52.171Z,10.40
2023-07-03T02:07:20.382Z,10.37
2023-07-03T02:09:48.022Z,13.63
2023-07-03T02:12:15.207Z,9.97
2023-07-03T02:14:42.405Z,9.60
2023-07-03T02:17:09.640Z,10.27
2023-07-03T02:19:37.141Z,12.00
2023-07-03T02:22:04.457Z,12.43
2023-07-03T02:24:32.178Z,11.30
2023-07-03T02:26:59.649Z,13.50
2023-07-03T02:29:27.064Z,12.10
2023-07-03T02:31:54.315Z,12.83
2023-07-03T02:34:22.822Z,14.43
2023-07-03T02:36:50.498Z,15.93
2023-07-03T02:39:17.722Z,14.43
2023-07-03T02:41:45.031Z,13.33
2023-07-03T02:44:12.214Z,14.20
2023-07-03T02:46:40.460Z,15.23
2023-07-03T02:49:07.713Z,11.87
2023-07-03T02:51:34.912Z,12.00
2023-07-03T02:54:02.069Z,16.70
2023-07-03T02:56:29.400Z,15.50
2023-07-03T02:58:56.642Z,13.33
2023-07-03T03:01:23.897Z,13.83
2023-07-03T03:03:51.293Z,12.60
2023-07-03T03:06:18.615Z,15.83
2023-07-03T03:08:47.045Z,15.97
2023-07-03T03:11:15.092Z,15.80
2023-07-03T03:13:42.739Z,11.17
2023-07-03T03:16:10.058Z,13.33
2023-07-03T03:18:37.233Z,14.37
2023-07-03T03:21:04.511Z,13.90
2023-07-03T03:23:31.939Z,12.70
2023-07-03T03:25:59.129Z,16.60
2023-07-03T03:28:26.317Z,11.43
2023-07-03T03:30:53.530Z,10.67
2023-07-03T03:33:20.779Z,11.30
2023-07-03T03:35:48.411Z,10.87
2023-07-03T03:38:15.994Z,11.97
2023-07-03T03:40:44.997Z,13.80
2023-07-03T03:43:12.157Z,16.93
2023-07-03T03:45:39.314Z,10.50
2023-07-03T03:48:06.658Z,11.50
2023-07-03T03:50:33.877Z,11.20
2023-07-03T03:53:01.110Z,12.07
2023-07-03T03:55:28.268Z,11.77
2023-07-03T03:57:55.437Z,11.73
2023-07-03T04:00:22.891Z,10.53
2023-07-03T04:02:50.099Z,15.03
2023-07-03T04:05:17.392Z,11.90
2023-07-03T04:07:45.086Z,10.93
2023-07-03T04:10:12.537Z,12.97
2023-07-03T04:12:39.809Z,12.27
2023-07-03T04:15:07.502Z,13.90
2023-07-03T04:17:34.774Z,11.10
2023-07-03T04:20:02.070Z,14.10
2023-07-03T04:22:29.240Z,11.70
2023-07-03T04:24:56.406Z,13.80
2023-07-03T04:27:23.613Z,12.23
2023-07-03T04:29:50.768Z,12.07
2023-07-03T04:32:18.030Z,8.70
2023-07-03T04:34:45.191Z,11.00
2023-07-03T04:37:12.364Z,10.43
2023-07-03T04:39:39.599Z,9.33
2023-07-03T04:42:08.672Z,11.60
2023-07-03T04:44:35.892Z,11.90
2023-07-03T04:47:06.193Z,11.77
2023-07-03T04:49:34.482Z,16.57
2023-07-03T04:52:02.007Z,13.23
2023-07-03T04:54:29.604Z,12.20
2023-07-03T04:56:58.006Z,13.07
2023-07-03T04:59:25.188Z,16.83
2023-07-03T05:01:52.444Z,13.73
2023-07-03T05:04:19.745Z,11.37
2023-07-03T05:06:48.164Z,14.03
2023-07-03T05:09:15.456Z,15.23
2023-07-03T05:11:42.619Z,12.73
2023-07-03T05:14:09.821Z,13.67
2023-07-03T05:16:38.094Z,12.00
2023-07-03T05:19:05.346Z,12.83
2023-07-03T05:21:32.576Z,15.17
2023-07-03T05:23:59.782Z,13.77
2023-07-03T05:26:26.999Z,13.60
2023-07-03T05:28:54.223Z,13.57
2023-07-03T05:31:23.607Z,10.73
2023-07-03T05:33:51.246Z,11.37
2023-07-03T05:36:18.475Z,14.90
2023-07-03T05:38:45.687Z,11.10
2023-07-03T05:41:13.409Z,12.43
2023-07-03T05:43:40.580Z,14.53
2023-07-03T05:46:07.779Z,16.77
2023-07-03T05:48:35.036Z,13.53
2023-07-03T05:51:02.236Z,11.63
2023-07-03T05:53:29.426Z,12.27
2023-07-03T05:55:57.529Z,11.67
2023-07-03T05:58:24.934Z,11.70
2023-07-03T06:00:53.071Z,10.27
2023-07-03T06:03:21.449Z,13.27
2023-07-03T06:05:49.557Z,12.17
2023-07-03T06:08:17.012Z,11.47
2023-07-03T06:10:46.417Z,10.33
2023-07-03T06:13:14.694Z,11.57
2023-07-03T06:15:42.327Z,11.80
2023-07-03T06:18:09.605Z,9.27
2023-07-03T06:20:38.780Z,10.90
2023-07-03T06:23:06.404Z,10.30
2023-07-03T06:25:33.699Z,13.53
2023-07-03T06:28:00.865Z,11.13
2023-07-03T06:30:28.115Z,13.17
2023-07-03T06:32:55.363Z,11.73
2023-07-03T06:35:22.695Z,10.80
2023-07-03T06:37:50.108Z,11.93
2023-07-03T06:40:17.512Z,12.87
2023-07-03T06:42:44.774Z,11.97
2023-07-03T06:45:12.178Z,15.47
2023-07-03T06:47:39.915Z,14.83
2023-07-03T06:50:07.451Z,9.33
2023-07-03T06:52:38.676Z,9.90
2023-07-03T06:55:06.203Z,10.90
2023-07-03T06:57:35.143Z,9.37
2023-07-03T07:00:02.418Z,12.23
2023-07-03T07:02:29.739Z,13.37
2023-07-03T07:04:58.297Z,9.93
2023-07-03T07:07:26.847Z,9.20
2023-07-03T07:09:54.434Z,12.57
2023-07-03T07:12:22.825Z,11.47
2023-07-03T07:14:49.993Z,15.57
2023-07-03T07:17:17.191Z,9.33
2023-07-03T07:19:44.385Z,9.10
2023-07-03T07:22:11.555Z,11.70
2023-07-03T07:24:38.920Z,13.13
2023-07-03T07:27:06.357Z,10.90
2023-07-03T07:29:33.685Z,13.60
2023-07-03T07:32:00.890Z,11.03
2023-07-03T07:34:28.466Z,10.20
2023-07-03T07:36:55.630Z,10.83
2023-07-03T07:39:23.315Z,12.43
2023-07-03T07:41:52.406Z,10.73
2023-07-03T07:44:20.114Z,13.10
2023-07-03T07:46:47.543Z,10.27
2023-07-03T07:49:14.865Z,9.50
2023-07-03T07:51:42.377Z,12.57
2023-07-03T07:54:09.572Z,8.50
2023-07-03T07:56:36.758Z,8.27
2023-07-03T07:59:04.023Z,11.97
2023-07-03T08:01:31.380Z,8.83
2023-07-03T08:03:58.874Z,12.10
2023-07-03T08:06:26.127Z,11.90
2023-07-03T08:08:53.381Z,11.50
2023-07-03T08:11:20.581Z,15.43
2023-07-03T08:13:47.738Z,13.70
2023-07-03T08:16:16.644Z,12.50
2023-07-03T08:18:46.155Z,10.17
2023-07-03T08:21:15.126Z,12.63
2023-07-03T08:23:42.370Z,9.83
2023-07-03T08:26:17.445Z,9.67
2023-07-03T08:28:44.615Z,11.67
2023-07-03T08:31:11.812Z,12.43
2023-07-03T08:33:39.161Z,14.27
2023-07-03T08:38:38.042Z,11.33
2023-07-03T08:41:05.356Z,14.00
2023-07-03T08:43:35.228Z,12.23
2023-07-03T08:46:03.397Z,14.93
2023-07-03T08:48:33.302Z,11.53
2023-07-03T08:51:02.075Z,11.17
2023-07-03T08:53:31.937Z,12.07
2023-07-03T08:56:02.982Z,12.80
2023-07-03T08:58:30.226Z,11.13
2023-07-03T09:01:05.425Z,15.23
2023-07-03T09:03:35.910Z,10.40
2023-07-03T09:06:08.351Z,8.53
2023-07-03T09:08:40.362Z,15.23
2023-07-03T09:11:08.110Z,13.67
2023-07-03T09:13:38.064Z,10.37
2023-07-03T09:16:10.472Z,14.83
2023-07-03T09:18:44.896Z,15.27
2023-07-03T09:21:12.399Z,12.03
2023-07-03T09:23:58.491Z,14.77
2023-07-03T09:26:29.784Z,15.43
2023-07-03T09:28:59.465Z,14.73
2023-07-03T09:31:29.934Z,11.90
2023-07-03T09:33:57.236Z,16.17
2023-07-03T09:36:32.009Z,12.10
2023-07-03T09:38:59.209Z,11.40
2023-07-03T09:41:28.621Z,15.87
2023-07-03T09:43:57.062Z,13.10
2023-07-03T09:46:25.820Z,11.27
2023-07-03T09:48:53.193Z,15.43
2023-07-03T09:51:20.457Z,14.07
2023-07-03T09:53:48.966Z,10.20
2023-07-03T09:56:17.299Z,10.23
2023-07-03T09:58:52.215Z,13.23
2023-07-03T10:06:38.898Z,14.53
2023-07-03T10:12:01.389Z,13.00
2023-07-03T10:14:33.045Z,10.80
2023-07-03T10:17:02.352Z,14.63
2023-07-03T10:19:30.088Z,13.40
2023-07-03T10:21:58.784Z,11.33
2023-07-03T10:24:26.386Z,11.80
2023-07-03T10:26:54.559Z,9.53
2023-07-03T10:29:26.129Z,12.30
2023-07-03T10:32:16.536Z,12.57
2023-07-03T10:34:51.350Z,14.73
2023-07-03T10:37:20.243Z,10.67
2023-07-03T10:40:18.559Z,13.70
2023-07-03T10:42:48.749Z,10.30
2023-07-03T10:45:16.433Z,10.00
2023-07-03T10:47:49.335Z,12.07
2023-07-03T10:50:18.308Z,10.57
2023-07-03T10:52:49.805Z,12.90
2023-07-03T10:55:30.242Z,12.07
2023-07-03T10:58:00.603Z,13.90
2023-07-03T11:00:54.977Z,14.10
2023-07-03T11:03:26.050Z,15.37
2023-07-03T11:05:56.590Z,9.70
2023-07-03T11:08:30.819Z,18.13
2023-07-03T11:10:57.964Z,10.90
2023-07-03T11:13:50.270Z,10.60
2023-07-03T11:16:18.354Z,18.97
2023-07-03T11:24:10.989Z,13.67
2023-07-03T11:29:11.014Z,13.83
2023-07-03T11:31:41.367Z,13.10
2023-07-03T11:36:51.192Z,12.70
2023-07-03T11:44:29.810Z,11.00
2023-07-03T11:46:58.872Z,11.93
2023-07-03T11:49:27.316Z,11.07
2023-07-03T11:51:58.859Z,10.73
2023-07-03T11:54:28.870Z,12.30
2023-07-03T11:56:57.211Z,9.27
2023-07-03T11:59:26.371Z,11.37
2023-07-03T12:01:55.332Z,13.10
2023-07-03T12:04:51.474Z,10.57
2023-07-03T12:07:18.625Z,11.20
2023-07-03T12:09:45.809Z,10.97
2023-07-03T12:12:16.073Z,11.43
2023-07-03T12:14:52.175Z,9.27
2023-07-03T12:17:20.255Z,11.27
2023-07-03T12:19:48.119Z,10.97
2023-07-03T12:22:16.852Z,11.03
2023-07-03T12:24:44.082Z,8.87
2023-07-03T12:27:11.270Z,10.67
2023-07-03T12:29:48.418Z,11.17
2023-07-03T12:32:24.401Z,11.93
2023-07-03T12:34:51.779Z,11.83
2023-07-03T12:37:21.957Z,9.03
2023-07-03T12:39:50.314Z,11.80
2023-07-03T12:42:25.397Z,9.63
2023-07-03T12:44:53.515Z,10.83
2023-07-03T12:47:21.961Z,9.37
2023-07-03T12:49:57.089Z,11.07
2023-07-03T12:52:25.665Z,11.10
2023-07-03T12:54:58.618Z,11.97
2023-07-03T12:57:35.314Z,10.00
2023-07-03T13:00:02.785Z,9.10
2023-07-03T13:02:30.844Z,8.77
2023-07-03T13:04:59.787Z,13.47
2023-07-03T13:07:27.707Z,10.70
2023-07-03T13:09:58.704Z,8.87
2023-07-03T13:12:26.695Z,10.10
2023-07-03T13:15:08.184Z,9.63
2023-07-03T13:17:36.656Z,12.80
2023-07-03T13:20:22.421Z,10.87
2023-07-03T13:22:53.530Z,13.17
2023-07-03T13:25:40.508Z,12.10
2023-07-03T13:28:11.093Z,12.20
2023-07-03T13:30:39.964Z,13.23
2023-07-03T13:33:13.751Z,13.73
2023-07-03T13:35:45.687Z,12.63
2023-07-03T13:38:20.231Z,10.90
2023-07-03T13:40:48.143Z,11.50
2023-07-03T13:43:19.475Z,10.20
2023-07-03T13:45:46.715Z,13.57
2023-07-03T13:48:13.964Z,12.10
2023-07-03T13:50:41.293Z,11.50
2023-07-03T13:53:08.761Z,11.90
2023-07-03T13:55:35.990Z,8.40
2023-07-03T13:58:03.234Z,10.70
2023-07-03T14:00:30.484Z,9.27
2023-07-03T14:02:57.843Z,9.30
2023-07-03T14:05:25.177Z,11.13
2023-07-03T14:07:52.372Z,8.47
2023-07-03T14:10:19.595Z,10.00
2023-07-03T14:12:46.767Z,10.47
2023-07-03T14:15:18.876Z,7.70
2023-07-03T14:17:46.162Z,10.10
2023-07-03T14:20:13.787Z,9.13
2023-07-03T14:22:42.536Z,10.33
2023-07-03T14:25:12.330Z,8.43
2023-07-03T14:27:41.883Z,10.73
2023-07-03T14:30:09.886Z,10.90
2023-07-03T14:32:52.957Z,8.47
2023-07-03T14:35:22.572Z,8.93
2023-07-03T14:37:49.773Z,10.63
2023-07-03T14:40:17.366Z,9.05
2023-07-03T14:42:44.802Z,7.63
2023-07-03T14:45:12.293Z,8.50
2023-07-03T14:47:40.587Z,12.90
2023-07-03T14:50:08.634Z,7.45
2023-07-03T14:52:46.156Z,8.13
2023-07-03T14:55:14.072Z,10.03
2023-07-03T14:57:41.416Z,8.90
2023-07-03T15:00:09.896Z,9.25
2023-07-03T15:02:40.543Z,12.23
2023-07-03T15:05:08.111Z,10.98
2023-07-03T15:07:38.360Z,8.10
2023-07-03T15:10:06.249Z,9.05
2023-07-03T15:12:33.621Z,9.63
2023-07-03T15:15:00.841Z,8.05
2023-07-03T15:17:28.349Z,9.80
2023-07-03T15:19:56.228Z,6.70
2023-07-03T15:22:23.715Z,8.68
2023-07-03T15:24:51.005Z,8.48
2023-07-03T15:27:18.208Z,10.68
2023-07-03T15:29:47.417Z,11.77
2023-07-03T15:32:14.623Z,9.77
2023-07-03T15:34:41.867Z,6.53
2023-07-03T15:37:09.327Z,12.13
2023-07-03T15:39:37.070Z,7.38
2023-07-03T15:42:04.290Z,13.32
2023-07-03T15:44:31.475Z,11.32
2023-07-03T15:46:58.758Z,9.68
2023-07-03T15:49:26.549Z,9.38
2023-07-03T15:51:54.775Z,8.93
2023-07-03T15:54:22.008Z,10.45
2023-07-03T15:56:50.643Z,9.32
2023-07-03T15:59:17.950Z,11.83
2023-07-03T16:01:45.127Z,9.37
2023-07-03T16:04:12.812Z,11.52
2023-07-03T16:06:40.024Z,10.20
2023-07-03T16:09:07.234Z,10.43
2023-07-03T16:11:37.987Z,8.25
2023-07-03T16:14:05.544Z,9.35
2023-07-03T16:16:32.762Z,7.15
2023-07-03T16:19:00.684Z,10.43
2023-07-03T16:21:29.082Z,8.23
2023-07-03T16:23:58.295Z,9.15
2023-07-03T16:26:26.440Z,9.35
2023-07-03T16:28:53.997Z,8.70
2023-07-03T16:31:22.330Z,10.70
2023-07-03T16:33:50.511Z,9.63
2023-07-03T16:36:19.400Z,8.57
2023-07-03T16:38:51.695Z,9.88
2023-07-03T16:41:19.383Z,11.82
2023-07-03T16:43:47.459Z,11.73
2023-07-03T16:46:17.084Z,9.07
2023-07-03T16:48:44.311Z,8.68
2023-07-03T16:51:11.575Z,9.43
2023-07-03T16:53:42.369Z,10.60
2023-07-03T16:56:11.070Z,8.60
2023-07-03T16:58:38.933Z,7.03
2023-07-03T17:01:11.043Z,6.45
2023-07-03T17:03:38.609Z,8.20
2023-07-03T17:06:07.574Z,9.00
2023-07-03T17:08:34.767Z,7.93
2023-07-03T17:11:02.231Z,9.63
2023-07-03T17:13:29.976Z,7.53
2023-07-03T17:15:57.825Z,8.18
2023-07-03T17:18:25.877Z,8.57
2023-07-03T17:20:53.368Z,6.93
2023-07-03T17:23:20.714Z,7.95
2023-07-03T17:25:50.328Z,7.18
2023-07-03T17:28:17.989Z,7.45
2023-07-03T17:30:45.218Z,7.95
2023-07-03T17:33:12.445Z,9.10
2023-07-03T17:35:42.535Z,8.45
2023-07-03T17:38:09.838Z,7.47
2023-07-03T17:40:40.376Z,6.28
2023-07-03T17:43:07.567Z,10.13
2023-07-03T17:45:35.574Z,9.02
2023-07-03T17:48:03.358Z,9.48
2023-07-03T17:50:30.649Z,9.63
2023-07-03T17:52:57.834Z,8.52
2023-07-03T17:55:26.330Z,10.18
2023-07-03T17:57:55.072Z,9.93
2023-07-03T18:00:22.446Z,9.63
2023-07-03T18:02:49.678Z,9.97
2023-07-03T18:05:17.011Z,10.13
2023-07-03T18:07:44.176Z,10.80
2023-07-03T18:10:12.218Z,11.37
2023-07-03T18:12:39.519Z,9.13
2023-07-03T18:15:07.691Z,8.30
2023-07-03T18:17:35.057Z,10.77
2023-07-03T18:20:05.004Z,9.10
2023-07-03T18:22:33.510Z,9.57
2023-07-03T18:25:02.939Z,10.80
2023-07-03T18:27:30.386Z,12.67
2023-07-03T18:29:57.578Z,10.20
2023-07-03T18:32:24.905Z,9.53
2023-07-03T18:34:52.182Z,10.63
2023-07-03T18:37:19.798Z,9.90
2023-07-03T18:39:47.182Z,10.93
2023-07-03T18:42:14.395Z,12.73
2023-07-03T18:44:41.613Z,10.13
2023-07-03T18:47:10.542Z,9.87
2023-07-03T18:49:37.765Z,8.47
2023-07-03T18:52:05.081Z,7.03
2023-07-03T18:54:32.243Z,9.13
2023-07-03T18:57:00.189Z,11.47
2023-07-03T18:59:27.934Z,11.23
2023-07-03T19:01:55.116Z,7.80
2023-07-03T19:04:22.297Z,10.47
2023-07-03T19:06:49.579Z,9.27
2023-07-03T19:09:16.807Z,11.13
2023-07-03T19:11:45.324Z,10.20
2023-07-03T19:14:12.544Z,9.70
2023-07-03T19:16:40.105Z,9.87
2023-07-03T19:19:07.294Z,10.87
2023-07-03T19:21:34.488Z,13.43
2023-07-03T19:24:01.770Z,10.03
2023-07-03T19:26:30.516Z,7.27
2023-07-03T19:28:57.696Z,9.17
2023-07-03T19:31:27.298Z,10.77
2023-07-03T19:33:56.305Z,14.53
2023-07-03T19:36:23.705Z,8.83
2023-07-03T19:38:50.987Z,12.37
2023-07-03T19:41:18.280Z,10.80
2023-07-03T19:43:45.494Z,10.83
2023-07-03T19:46:13.205Z,9.43
2023-07-03T19:48:41.300Z,13.60
2023-07-03T19:51:08.677Z,9.43
2023-07-03T19:53:36.497Z,11.17
2023-07-03T19:56:03.922Z,10.07
2023-07-03T19:58:31.528Z,10.70
2023-07-03T20:01:02.512Z,11.40
2023-07-03T20:03:30.060Z,10.80
2023-07-03T20:05:57.703Z,9.87
2023-07-03T20:08:25.605Z,13.40
2023-07-03T20:10:59.966Z,11.80
2023-07-03T20:13:27.336Z,12.93
2023-07-03T20:15:54.853Z,12.53
2023-07-03T20:18:25.176Z,10.40
2023-07-03T20:20:52.353Z,12.13
2023-07-03T20:23:19.554Z,12.47
2023-07-03T20:25:56.228Z,10.83
2023-07-03T20:28:24.054Z,12.10
2023-07-03T20:30:51.873Z,12.73
2023-07-03T20:33:19.225Z,9.33
2023-07-03T20:35:58.217Z,11.03
2023-07-03T20:38:25.378Z,9.50
2023-07-03T20:41:03.188Z,14.20
2023-07-03T20:43:30.387Z,10.43
2023-07-03T20:45:58.724Z,12.33
2023-07-03T20:48:26.192Z,14.10
2023-07-03T20:50:55.466Z,11.33
2023-07-03T20:53:40.361Z,14.00
2023-07-03T20:56:10.977Z,11.80
2023-07-03T20:58:38.796Z,14.50
2023-07-03T21:01:11.805Z,15.40
2023-07-03T21:03:39.331Z,10.10
2023-07-03T21:06:09.891Z,10.23
2023-07-03T21:08:38.348Z,12.93
2023-07-03T21:11:05.640Z,12.67
2023-07-03T21:13:33.005Z,10.93
2023-07-03T21:16:03.541Z,13.73
2023-07-03T21:18:31.552Z,11.40
2023-07-03T21:20:58.747Z,8.30
2023-07-03T21:23:25.978Z,12.10
2023-07-03T21:25:56.049Z,13.80
2023-07-03T21:28:23.326Z,13.10
2023-07-03T21:30:50.819Z,10.73
2023-07-03T21:33:21.366Z,11.00
2023-07-03T21:35:49.154Z,11.30
2023-07-03T21:38:16.640Z,13.20
2023-07-03T21:40:54.224Z,11.87
2023-07-03T21:43:21.791Z,7.30
2023-07-03T21:45:49.120Z,11.93
2023-07-03T21:48:16.371Z,11.73
2023-07-03T21:50:45.226Z,14.20
2023-07-03T21:53:12.442Z,15.23
2023-07-03T21:55:39.604Z,12.00
2023-07-03T21:58:06.764Z,10.83
2023-07-03T22:00:34.971Z,11.83
2023-07-03T22:03:02.213Z,9.07
2023-07-03T22:05:29.413Z,12.23
2023-07-03T22:07:56.580Z,13.27
2023-07-03T22:10:23.736Z,12.83
2023-07-03T22:12:52.604Z,10.93
2023-07-03T22:15:19.842Z,15.17
2023-07-03T22:17:47.034Z,13.07
2023-07-03T22:20:14.220Z,11.37
2023-07-03T22:22:41.397Z,9.83
2023-07-03T22:25:09.324Z,16.37
2023-07-03T22:27:36.670Z,14.27
2023-07-03T22:30:04.228Z,14.33
2023-07-03T22:32:31.529Z,9.80
2023-07-03T22:34:58.836Z,12.93
2023-07-03T22:37:26.065Z,13.97
2023-07-03T22:39:53.225Z,13.10
2023-07-03T22:42:20.402Z,10.27
2023-07-03T22:44:48.895Z,12.50
2023-07-03T22:47:16.102Z,11.20
2023-07-03T22:49:43.256Z,9.80
2023-07-03T22:52:11.238Z,11.07
2023-07-03T22:54:38.403Z,13.13
2023-07-03T22:57:05.874Z,9.60
2023-07-03T22:59:33.028Z,8.93
2023-07-03T23:02:00.236Z,10.20
2023-07-03T23:04:27.497Z,11.67
2023-07-03T23:06:54.709Z,11.53
2023-07-03T23:09:22.059Z,15.53
2023-07-03T23:11:49.248Z,14.17
2023-07-03T23:14:16.617Z,8.87
2023-07-03T23:16:44.821Z,13.30
2023-07-03T23:19:12.184Z,12.13
2023-07-03T23:21:40.816Z,11.63
2023-07-03T23:24:08.431Z,11.77
2023-07-03T23:26:36.064Z,12.63
2023-07-03T23:29:03.251Z,11.83
2023-07-03T23:31:30.584Z,12.67
2023-07-03T23:33:57.814Z,11.00
2023-07-03T23:36:25.622Z,15.67
2023-07-03T23:38:53.177Z,15.03
2023-07-03T23:41:20.416Z,12.33
2023-07-03T23:43:49.703Z,10.50
2023-07-03T23:46:18.064Z,13.80
2023-07-03T23:48:45.937Z,12.17
2023-07-03T23:51:13.252Z,13.03
2023-07-03T23:53:44.340Z,11.27
2023-07-03T23:56:13.429Z,10.90
2023-07-03T23:58:42.152Z,10.83
